Time;durP1;ratioP1;P1;durP2;ratioP2;P2;SDS_P1;SDS_P2;PMS_P1;PMS_P2;Temp;Humidity;BMP_temperature;BMP_pressure;BME280_temperature;BME280_humidity;BME280_pressure;Samples;Min_cycle;Max_cycle;Signal;HPM_P1;HPM_P2
2022/05/04 00:02:41;;;;;;;4.05;0.60;;;8.60;99.90;;;;;;6223995;23;20024;-95
2022/05/04 00:05:08;;;;;;;2.72;0.82;;;8.70;99.90;;;;;;6167971;23;20114;-95
2022/05/04 00:07:58;;;;;;;4.03;0.90;;;8.70;99.90;;;;;;6176090;23;20077;-92
2022/05/04 00:10:44;;;;;;;1.92;0.73;;;8.70;99.90;;;;;;6207270;23;20068;-95
2022/05/04 00:13:15;;;;;;;3.00;1.13;;;8.70;99.90;;;;;;6183416;23;20032;-93
2022/05/04 00:18:23;;;;;;;3.22;0.98;;;8.70;99.90;;;;;;6199501;23;20071;-89
2022/05/04 00:20:52;;;;;;;2.95;0.77;;;8.60;99.90;;;;;;6175330;23;20136;-90
2022/05/04 00:23:18;;;;;;;2.70;0.60;;;8.60;99.90;;;;;;6154773;23;20017;-87
2022/05/04 00:26:02;;;;;;;2.15;0.77;;;8.60;99.90;;;;;;6183286;23;20016;-87
2022/05/04 00:31:04;;;;;;;2.72;0.80;;;8.60;99.90;;;;;;6206804;23;20029;-88
2022/05/04 00:41:49;;;;;;;3.15;0.60;;;8.60;99.90;;;;;;6176503;23;20065;-89
2022/05/04 00:44:16;;;;;;;3.00;0.90;;;8.60;99.90;;;;;;6118452;23;20018;-88
2022/05/04 00:46:42;;;;;;;2.00;0.70;;;8.60;99.90;;;;;;6151060;23;20347;-89
2022/05/04 00:49:22;;;;;;;2.80;1.75;;;8.60;99.90;;;;;;6153173;23;20028;-88
2022/05/04 00:57:02;;;;;;;3.92;1.00;;;8.60;99.90;;;;;;6207167;23;20028;-88
2022/05/04 00:59:32;;;;;;;2.42;0.70;;;8.60;99.90;;;;;;6156062;23;20045;-88
2022/05/04 01:07:10;;;;;;;3.20;1.00;;;8.50;99.90;;;;;;6233286;23;20043;-87
2022/05/04 01:09:40;;;;;;;2.78;0.93;;;8.50;99.90;;;;;;6208277;23;20029;-87
2022/05/04 01:22:27;;;;;;;5.43;1.58;;;8.50;99.90;;;;;;6200967;23;20074;-91
2022/05/04 01:24:53;;;;;;;1.97;0.80;;;8.50;99.90;;;;;;6202235;23;20025;-91
2022/05/04 01:35:05;;;;;;;3.50;0.88;;;8.50;99.90;;;;;;6170631;23;20524;-91
2022/05/04 01:37:31;;;;;;;3.80;1.05;;;8.50;99.90;;;;;;6144729;23;20026;-89
2022/05/04 01:39:56;;;;;;;2.60;0.80;;;8.50;99.90;;;;;;6124236;23;20402;-89
2022/05/04 01:42:24;;;;;;;5.07;1.17;;;8.50;99.90;;;;;;6134868;23;20021;-92
2022/05/04 01:44:51;;;;;;;2.78;0.70;;;8.50;99.90;;;;;;6126622;23;20014;-93
2022/05/04 01:47:16;;;;;;;;;;;8.50;99.90;;;;;;6126940;23;20005;-96
2022/05/04 01:49:42;;;;;;;3.42;1.30;;;8.50;99.90;;;;;;6121148;23;19991;-93
2022/05/04 01:52:08;;;;;;;3.53;0.87;;;8.50;99.90;;;;;;6124587;23;20525;-95
2022/05/04 01:54:40;;;;;;;4.83;1.07;;;8.40;99.90;;;;;;6121763;23;20069;-90
2022/05/04 01:57:09;;;;;;;3.70;1.27;;;8.40;99.90;;;;;;6146072;23;20025;-90
2022/05/04 01:59:39;;;;;;;2.78;0.80;;;8.50;99.90;;;;;;6147297;23;20053;-90
2022/05/04 02:02:07;;;;;;;4.85;1.08;;;8.50;99.90;;;;;;6119154;23;20065;-89
2022/05/04 02:04:37;;;;;;;3.90;1.50;;;8.40;99.90;;;;;;6099488;23;20052;-95
2022/05/04 02:07:23;;;;;;;2.15;0.93;;;8.50;99.90;;;;;;6099783;23;20017;-89
2022/05/04 02:12:40;;;;;;;2.80;0.77;;;8.40;99.90;;;;;;6206371;23;20025;-91
2022/05/04 02:15:30;;;;;;;2.35;0.98;;;8.50;99.90;;;;;;6205976;23;20025;-92
2022/05/04 02:18:07;;;;;;;2.17;0.80;;;8.50;99.90;;;;;;6201935;23;20017;-92
2022/05/04 02:20:33;;;;;;;3.47;1.00;;;8.50;99.90;;;;;;6149249;23;20040;-93
2022/05/04 02:23:09;;;;;;;3.53;0.87;;;8.50;99.90;;;;;;6145867;23;20052;-90
2022/05/04 02:43:33;;;;;;;1.55;0.70;;;8.40;99.90;;;;;;6206042;23;20076;-89
2022/05/04 02:46:22;;;;;;;3.70;0.80;;;8.40;99.90;;;;;;6195020;23;20025;-91
2022/05/04 02:49:07;;;;;;;2.28;0.90;;;8.40;99.90;;;;;;6183856;23;20410;-89
2022/05/04 02:51:37;;;;;;;5.97;1.20;;;8.40;99.90;;;;;;6179477;23;20027;-90
2022/05/04 02:54:23;;;;;;;3.95;0.95;;;8.40;99.90;;;;;;6154215;23;20023;-89
2022/05/04 03:09:47;;;;;;;3.45;1.10;;;8.40;99.90;;;;;;6204038;23;20027;-88
2022/05/04 03:14:55;;;;;;;2.53;0.70;;;8.40;99.90;;;;;;6205213;23;20027;-88
2022/05/04 03:17:22;;;;;;;3.78;0.73;;;8.40;99.90;;;;;;6154450;23;20016;-91
2022/05/04 03:25:08;;;;;;;2.67;0.80;;;8.40;99.90;;;;;;6201358;23;20025;-96
2022/05/04 03:27:34;;;;;;;1.58;0.80;;;8.40;99.90;;;;;;6148605;23;20034;-92
2022/05/04 03:29:59;;;;;;;4.40;0.73;;;8.40;99.90;;;;;;6148830;23;20013;-89
2022/05/04 03:32:25;;;;;;;2.80;0.90;;;8.40;99.90;;;;;;6144400;23;20071;-93
2022/05/04 03:34:51;;;;;;;3.43;0.70;;;8.40;99.90;;;;;;6150586;23;20013;-93
2022/05/04 03:37:17;;;;;;;3.57;0.90;;;8.40;99.90;;;;;;6149913;23;20378;-89
2022/05/04 03:39:43;;;;;;;1.42;0.70;;;8.30;99.90;;;;;;6150653;23;20098;-88
2022/05/04 03:42:12;;;;;;;3.78;0.90;;;8.30;99.90;;;;;;6176235;23;20021;-89
2022/05/04 04:01:03;;;;;;;3.92;1.00;;;8.30;99.90;;;;;;6229393;23;20052;-88
2022/05/04 04:11:56;;;;;;;3.58;1.00;;;8.30;99.90;;;;;;6231665;23;20029;-89
2022/05/04 04:14:24;;;;;;;2.93;0.90;;;8.30;99.90;;;;;;6208521;23;20020;-87
2022/05/04 04:16:59;;;;;;;3.20;1.05;;;8.30;99.90;;;;;;6234250;23;20016;-87
2022/05/04 04:27:35;;;;;;;3.08;1.00;;;8.30;99.90;;;;;;6205968;23;20032;-90
2022/05/04 04:30:18;;;;;;;3.33;1.10;;;8.30;99.90;;;;;;6207638;23;20005;-87
2022/05/04 04:32:55;;;;;;;2.95;1.00;;;8.30;99.90;;;;;;6179941;23;20021;-88
2022/05/04 04:35:31;;;;;;;3.58;1.25;;;8.30;99.90;;;;;;6169974;23;20021;-87
2022/05/04 04:51:13;;;;;;;2.47;1.08;;;8.30;99.90;;;;;;6194764;23;20032;-93
2022/05/04 04:53:39;;;;;;;2.53;1.00;;;8.30;99.90;;;;;;6142074;23;20049;-94
2022/05/04 04:56:05;;;;;;;3.22;1.00;;;8.40;99.90;;;;;;6143316;23;20013;-90
2022/05/04 05:03:42;;;;;;;2.70;0.70;;;8.30;99.90;;;;;;6194255;23;20017;-94
2022/05/04 05:06:12;;;;;;;2.00;0.90;;;8.40;99.90;;;;;;6149476;23;20421;-93
2022/05/04 05:08:43;;;;;;;4.63;0.90;;;8.40;99.90;;;;;;6179964;23;20082;-91
2022/05/04 05:11:09;;;;;;;3.53;0.80;;;8.40;99.90;;;;;;6155021;23;20047;-89
2022/05/04 05:16:14;;;;;;;4.53;1.02;;;8.40;99.90;;;;;;6208717;23;20029;-91
2022/05/04 05:18:53;;;;;;;3.63;1.15;;;8.40;99.90;;;;;;6180153;23;20009;-90
2022/05/04 05:21:41;;;;;;;3.53;1.05;;;8.50;99.90;;;;;;6203991;23;20155;-94
2022/05/04 05:24:31;;;;;;;5.55;1.20;;;8.40;99.90;;;;;;6185270;23;20103;-89
2022/05/04 05:27:23;;;;;;;2.85;0.80;;;8.50;99.90;;;;;;6181210;23;20056;-91
2022/05/04 05:37:50;;;;;;;4.47;0.90;;;8.40;99.90;;;;;;6202191;23;20451;-93
2022/05/04 05:40:20;;;;;;;2.40;0.90;;;8.40;99.90;;;;;;6154123;23;20021;-95
2022/05/04 05:58:36;;;;;;;3.40;0.90;;;8.60;99.90;;;;;;6228441;23;20050;-92
2022/05/04 06:46:26;;;;;;;3.55;0.63;;;9.10;99.90;;;;;;6237468;23;20033;-88
2022/05/04 06:49:37;;;;;;;1.83;0.45;;;9.00;99.90;;;;;;6241944;23;20031;-89
2022/05/04 07:05:14;;;;;;;4.88;0.60;;;9.20;99.90;;;;;;6199955;23;20044;-94
2022/05/04 07:18:13;;;;;;;2.05;0.63;;;9.30;99.90;;;;;;6227262;23;20015;-90
2022/05/04 07:20:54;;;;;;;4.40;0.70;;;9.40;99.90;;;;;;6210664;23;20052;-89
2022/05/04 07:23:33;;;;;;;1.83;0.70;;;9.40;99.90;;;;;;6211872;23;20012;-88
2022/05/04 07:26:17;;;;;;;2.90;0.65;;;9.40;99.90;;;;;;6234673;23;20012;-90
2022/05/04 07:29:09;;;;;;;1.50;0.55;;;9.40;99.90;;;;;;6210515;23;20020;-88
2022/05/04 07:45:08;;;;;;;2.60;0.80;;;9.60;99.90;;;;;;6230243;23;20035;-90
2022/05/04 07:48:05;;;;;;;2.05;0.40;;;9.60;99.90;;;;;;6231728;23;20028;-91
2022/05/04 07:50:44;;;;;;;;;;;;;;;;;;;;;
2022/05/04 07:53:39;;;;;;;5.85;0.80;;;9.60;99.80;;;;;;6193235;23;20017;-92
2022/05/04 08:10:41;;;;;;;2.47;0.77;;;9.70;99.30;;;;;;6156274;23;20037;-93
2022/05/04 08:13:09;;;;;;;1.43;0.70;;;9.70;99.20;;;;;;6130402;23;20022;-93
2022/05/04 08:15:37;;;;;;;2.15;0.70;;;9.80;99.10;;;;;;6107020;23;20253;-92
2022/05/04 08:18:08;;;;;;;1.35;0.50;;;9.80;98.90;;;;;;6134780;23;20018;-94
2022/05/04 08:20:37;;;;;;;3.55;0.57;;;9.70;98.90;;;;;;6110981;23;20103;-96
2022/05/04 08:23:03;;;;;;;3.38;0.70;;;9.80;98.80;;;;;;6113540;23;20025;-95
2022/05/04 08:30:55;;;;;;;2.38;0.50;;;9.70;98.70;;;;;;6229793;23;20009;-91
2022/05/04 08:34:16;;;;;;;2.13;0.60;;;9.70;98.50;;;;;;6150102;23;20077;-92
2022/05/04 09:03:15;;;;;;;3.22;0.70;;;9.80;98.20;;;;;;6202865;23;20439;-93
2022/05/04 09:06:31;;;;;;;3.17;0.90;;;9.90;98.10;;;;;;6176598;23;20025;-94
2022/05/04 09:16:23;;;;;;;2.75;0.70;;;10.00;98.10;;;;;;6193377;23;20074;-95
2022/05/04 09:18:55;;;;;;;3.33;0.63;;;10.00;97.80;;;;;;6139999;23;20009;-94
2022/05/04 09:21:34;;;;;;;2.13;0.70;;;10.10;97.80;;;;;;6140635;23;20021;-96
2022/05/04 09:24:13;;;;;;;1.73;0.57;;;10.10;97.90;;;;;;6152747;23;20025;-95
2022/05/04 09:27:33;;;;;;;3.55;1.05;;;10.10;97.80;;;;;;6179902;23;20034;-87
2022/05/04 09:46:58;;;;;;;2.72;0.90;;;10.30;97.50;;;;;;6179600;23;20025;-89
2022/05/04 09:49:28;;;;;;;1.80;0.63;;;10.40;97.40;;;;;;6195963;23;20100;-90
2022/05/04 09:52:09;;;;;;;;;;;10.40;97.20;;;;;;6144154;23;20068;-89
2022/05/04 10:00:24;;;;;;;3.53;0.90;;;10.50;97.00;;;;;;6223666;23;20031;-94
2022/05/04 10:02:56;;;;;;;3.00;0.80;;;10.50;96.90;;;;;;6155618;23;20031;-96
2022/05/04 10:05:26;;;;;;;1.50;0.63;;;10.60;96.90;;;;;;6172526;23;20013;-95
2022/05/04 10:07:52;;;;;;;3.85;0.77;;;10.60;97.00;;;;;;6182394;23;20044;-94
2022/05/04 10:10:50;;;;;;;3.75;0.60;;;10.60;96.70;;;;;;6182870;23;20004;-95
2022/05/04 10:13:28;;;;;;;5.10;0.98;;;10.60;96.20;;;;;;6230014;23;20019;-90
2022/05/04 10:15:56;;;;;;;2.38;0.80;;;10.60;96.50;;;;;;6171275;23;20017;-95
2022/05/04 10:18:27;;;;;;;3.92;0.82;;;10.60;96.60;;;;;;6206820;23;20020;-91
2022/05/04 10:21:12;;;;;;;3.22;0.90;;;10.60;96.40;;;;;;6172678;23;20147;-93
2022/05/04 10:23:45;;;;;;;1.77;0.60;;;10.70;95.90;;;;;;6178942;23;20058;-91
2022/05/04 10:26:14;;;;;;;3.05;0.95;;;10.70;96.20;;;;;;6176142;23;20012;-91
2022/05/04 10:30:30;;;;;;;4.88;0.90;;;10.70;95.90;;;;;;6175036;23;20266;-94
2022/05/04 10:31:54;;;;;;;2.60;0.88;;;10.60;95.40;;;;;;6206002;23;20036;-92
2022/05/04 10:34:28;;;;;;;3.13;0.80;;;10.70;95.90;;;;;;6173646;23;20017;-96
2022/05/04 10:36:54;;;;;;;3.13;0.70;;;10.70;96.00;;;;;;6167213;23;20039;-94
2022/05/04 10:39:24;;;;;;;4.27;1.10;;;10.70;95.80;;;;;;6168447;23;20415;-94
2022/05/04 10:41:50;;;;;;;1.85;0.75;;;10.70;95.70;;;;;;6167705;23;20021;-96
2022/05/04 10:44:17;;;;;;;2.17;1.02;;;10.80;96.10;;;;;;6167884;23;20013;-93
2022/05/04 10:46:46;;;;;;;;;;;10.90;96.00;;;;;;6149829;23;20071;-92
2022/05/04 10:49:16;;;;;;;2.08;0.93;;;11.00;95.50;;;;;;6179342;23;19922;-90
2022/05/04 10:51:47;;;;;;;1.40;0.70;;;11.10;95.80;;;;;;6169657;23;20020;-95
2022/05/04 10:54:18;;;;;;;3.95;0.80;;;11.10;95.40;;;;;;6175046;23;20341;-93
2022/05/04 10:59:35;;;;;;;1.77;0.60;;;11.30;95.20;;;;;;6229508;23;20024;-91
2022/05/04 11:15:55;;;;;;;2.97;0.60;;;11.30;93.90;;;;;;6192448;23;20025;-94
2022/05/04 11:18:30;;;;;;;3.58;0.93;;;11.40;94.00;;;;;;6149538;23;20048;-94
2022/05/04 11:21:01;;;;;;;1.15;0.55;;;11.60;94.00;;;;;;6175458;23;20024;-94
2022/05/04 11:29:13;;;;;;;3.58;0.88;;;12.50;92.20;;;;;;6198791;23;20021;-93
2022/05/04 11:32:43;;;;;;;2.40;0.80;;;12.80;92.00;;;;;;6151158;23;20017;-95
2022/05/04 11:40:48;;;;;;;2.67;0.85;;;13.40;90.00;;;;;;6174780;23;20080;-93
2022/05/04 11:43:42;;;;;;;2.08;0.65;;;13.50;90.30;;;;;;6148323;23;20025;-92
2022/05/04 11:48:46;;;;;;;2.03;0.60;;;13.90;89.80;;;;;;6229559;23;20024;-92
2022/05/04 11:51:17;;;;;;;3.05;0.70;;;14.10;90.10;;;;;;6173008;23;20032;-93
2022/05/04 11:54:51;;;;;;;2.50;1.23;;;14.30;88.90;;;;;;6232191;23;20013;-96
2022/05/04 12:13:27;;;;;;;2.58;0.63;;;15.00;81.80;;;;;;6223180;23;20039;-95
2022/05/04 12:16:06;;;;;;;2.55;0.82;;;14.90;82.80;;;;;;6177605;23;20027;-92
2022/05/04 12:26:43;;;;;;;3.42;0.90;;;14.80;81.10;;;;;;6167058;23;20033;-89
2022/05/04 12:45:35;;;;;;;3.35;1.10;;;15.10;79.30;;;;;;6167105;23;20081;-96
2022/05/04 12:48:06;;;;;;;2.33;0.80;;;14.90;79.50;;;;;;6109437;23;20081;-95
2022/05/04 12:58:48;;;;;;;4.88;0.90;;;13.90;81.30;;;;;;6061557;23;20023;-92
2022/05/04 13:01:20;;;;;;;3.53;1.00;;;13.80;81.90;;;;;;6032777;23;20019;-90
2022/05/04 13:04:07;;;;;;;3.55;1.02;;;13.90;81.60;;;;;;6036104;23;20023;-96
2022/05/04 14:04:53;;;;;;;3.25;1.10;;;14.50;78.60;;;;;;6161386;23;20025;-96
2022/05/04 14:07:19;;;;;;;3.60;1.05;;;14.60;78.60;;;;;;6134485;23;20025;-95
2022/05/04 14:09:46;;;;;;;3.35;0.85;;;14.60;78.60;;;;;;6135571;23;20351;-94
2022/05/04 14:20:20;;;;;;;1.50;0.75;;;14.60;77.90;;;;;;6163452;23;20451;-91
2022/05/04 14:23:11;;;;;;;3.15;0.88;;;14.60;77.70;;;;;;6138868;23;20343;-96
2022/05/04 14:25:45;;;;;;;2.70;0.70;;;14.50;77.30;;;;;;6137954;23;20087;-93
2022/05/04 14:28:35;;;;;;;;;;;;;;;;;;;;;
2022/05/04 14:31:16;;;;;;;2.83;1.10;;;14.40;77.90;;;;;;6162658;23;20310;-92
2022/05/04 14:33:42;;;;;;;3.23;1.00;;;14.30;77.90;;;;;;6136032;23;20533;-91
2022/05/04 14:36:08;;;;;;;3.10;1.00;;;14.30;78.10;;;;;;6137188;23;20068;-95
2022/05/04 14:38:33;;;;;;;2.67;1.00;;;14.30;78.00;;;;;;6135621;23;20017;-90
2022/05/04 14:41:04;;;;;;;2.23;0.97;;;14.30;78.00;;;;;;6161202;23;20263;-94
2022/05/04 14:43:34;;;;;;;3.05;0.90;;;14.30;78.30;;;;;;6117200;23;20021;-92
2022/05/04 14:46:04;;;;;;;2.95;1.00;;;14.30;78.20;;;;;;6138868;23;20013;-95
2022/05/04 14:48:30;;;;;;;3.65;0.90;;;14.30;77.90;;;;;;6135783;23;20059;-94
2022/05/04 14:50:57;;;;;;;2.33;0.90;;;14.30;78.30;;;;;;6162507;23;20068;-96
2022/05/04 14:53:45;;;;;;;4.20;1.00;;;14.20;78.60;;;;;;6170334;23;20064;-96
2022/05/04 14:56:38;;;;;;;2.25;0.90;;;14.20;78.40;;;;;;6157265;23;20017;-96
2022/05/04 14:59:23;;;;;;;2.80;1.08;;;14.10;78.40;;;;;;6177362;23;20044;-96
2022/05/04 15:01:59;;;;;;;2.08;0.75;;;14.10;78.60;;;;;;6152611;23;20020;-89
2022/05/04 15:12:28;;;;;;;3.08;1.00;;;14.10;79.40;;;;;;6199976;23;20076;-92
2022/05/04 15:14:55;;;;;;;4.32;0.90;;;14.00;78.90;;;;;;6200723;23;20021;-92
2022/05/04 15:17:32;;;;;;;2.53;0.80;;;14.00;79.00;;;;;;6179299;23;20001;-96
2022/05/04 15:20:00;;;;;;;5.85;1.00;;;13.90;79.30;;;;;;6178213;23;20013;-93
2022/05/04 15:22:26;;;;;;;1.20;0.60;;;13.90;79.30;;;;;;6150387;23;20023;-91
2022/05/04 15:25:13;;;;;;;4.03;0.90;;;13.80;79.40;;;;;;6148513;23;20013;-92
2022/05/04 15:27:48;;;;;;;3.90;0.98;;;13.80;79.10;;;;;;6173152;23;20016;-91
2022/05/04 15:30:13;;;;;;;2.13;1.00;;;13.80;79.30;;;;;;6141569;23;20383;-96
2022/05/04 15:35:23;;;;;;;3.70;1.17;;;13.60;78.70;;;;;;6226679;23;20024;-90
2022/05/04 15:37:57;;;;;;;2.67;1.00;;;13.50;78.90;;;;;;6201309;23;20021;-89
2022/05/04 15:40:30;;;;;;;2.42;0.82;;;13.40;78.70;;;;;;6202310;23;20051;-90
2022/05/04 15:43:03;;;;;;;3.63;1.00;;;13.30;78.70;;;;;;6193987;23;20075;-95
2022/05/04 15:45:35;;;;;;;4.10;1.27;;;13.20;79.20;;;;;;6197755;23;20029;-86
2022/05/04 15:48:02;;;;;;;2.78;0.80;;;13.10;79.70;;;;;;6174012;23;20023;-89
2022/05/04 15:53:18;;;;;;;3.97;1.00;;;12.90;79.90;;;;;;6226910;23;20021;-90
2022/05/04 15:55:45;;;;;;;2.37;0.90;;;12.90;80.00;;;;;;6198566;23;20058;-90
2022/05/04 15:58:13;;;;;;;2.88;1.02;;;12.90;80.20;;;;;;6199437;23;20263;-96
2022/05/04 16:00:39;;;;;;;4.38;1.10;;;12.80;80.40;;;;;;6198691;23;20082;-93
2022/05/04 16:10:51;;;;;;;3.47;0.82;;;12.70;81.60;;;;;;6143491;23;20022;-90
2022/05/04 16:13:17;;;;;;;;;;;12.70;82.00;;;;;;6081702;23;20033;-90
2022/05/04 16:15:43;;;;;;;3.60;1.10;;;12.70;82.20;;;;;;6081038;23;19917;-92
2022/05/04 16:23:37;;;;;;;2.42;0.95;;;12.70;82.30;;;;;;6102158;23;20026;-93
2022/05/04 16:26:08;;;;;;;4.32;1.20;;;12.70;81.80;;;;;;6077132;23;20021;-90
2022/05/04 16:28:33;;;;;;;4.70;0.93;;;12.60;82.10;;;;;;6076770;23;20105;-92
2022/05/04 16:30:59;;;;;;;1.73;0.80;;;12.60;82.50;;;;;;6077323;23;20373;-92
2022/05/04 16:37:18;;;;;;;4.00;1.00;;;12.60;82.20;;;;;;6113238;23;20028;-91
2022/05/04 16:39:46;;;;;;;3.22;1.10;;;12.60;82.50;;;;;;6076815;23;20022;-91
2022/05/04 16:42:24;;;;;;;2.88;0.95;;;12.60;83.00;;;;;;6076894;23;20436;-93
2022/05/04 16:44:50;;;;;;;2.05;0.82;;;12.50;83.30;;;;;;6076601;23;20478;-91
2022/05/04 16:47:16;;;;;;;4.40;0.93;;;12.40;83.40;;;;;;6077221;23;20061;-91
2022/05/04 16:50:29;;;;;;;3.80;1.00;;;12.40;83.70;;;;;;6101442;23;20837;-93
2022/05/04 16:58:09;;;;;;;2.78;1.20;;;12.40;84.20;;;;;;6217350;23;20083;-92
2022/05/04 17:03:21;;;;;;;4.50;1.35;;;12.40;84.40;;;;;;6186951;23;20029;-92
2022/05/04 17:05:47;;;;;;;4.97;1.02;;;12.30;84.40;;;;;;6136938;23;20088;-94
2022/05/04 17:18:42;;;;;;;3.90;1.00;;;12.10;85.30;;;;;;6186242;23;20346;-93
2022/05/04 17:24:51;;;;;;;3.60;1.33;;;11.90;85.70;;;;;;6187815;23;20030;-89
2022/05/04 17:27:17;;;;;;;5.60;1.27;;;11.80;85.90;;;;;;6190123;23;20052;-88
2022/05/04 17:30:05;;;;;;;3.95;1.15;;;11.70;86.30;;;;;;6190382;23;20017;-90
2022/05/04 17:38:05;;;;;;;1.65;0.90;;;11.50;87.50;;;;;;6189304;23;20079;-89
2022/05/04 17:40:31;;;;;;;5.10;1.33;;;11.40;87.90;;;;;;6190121;23;20062;-90
2022/05/04 17:43:01;;;;;;;4.57;1.25;;;11.30;88.30;;;;;;6190814;23;20017;-90
2022/05/04 17:46:12;;;;;;;2.50;1.00;;;11.20;88.50;;;;;;6190466;23;20531;-90
2022/05/04 17:51:13;;;;;;;3.20;1.00;;;11.10;89.20;;;;;;6216619;23;20024;-88
2022/05/04 17:53:41;;;;;;;3.60;1.10;;;11.00;89.80;;;;;;6190309;23;20023;-89
2022/05/04 17:56:17;;;;;;;;;;;;;;;;;;;;;
2022/05/04 18:07:47;;;;;;;5.30;2.00;;;10.80;90.80;;;;;;6156513;23;20037;-88
2022/05/04 18:10:13;;;;;;;4.27;1.87;;;10.80;91.10;;;;;;6106526;23;20021;-91
2022/05/04 18:12:40;;;;;;;4.57;1.40;;;10.70;91.50;;;;;;6106198;23;20023;-91
2022/05/04 18:15:07;;;;;;;5.43;1.90;;;10.70;92.40;;;;;;6106279;23;20014;-93
2022/05/04 18:17:35;;;;;;;4.18;1.65;;;10.70;92.00;;;;;;6106324;23;20028;-90
2022/05/04 18:20:07;;;;;;;4.90;1.60;;;10.70;92.80;;;;;;6105992;23;20022;-89
2022/05/04 18:22:35;;;;;;;5.38;1.27;;;10.70;93.10;;;;;;6130432;23;20371;-91
2022/05/04 18:25:00;;;;;;;4.15;1.50;;;10.70;93.00;;;;;;6106089;23;20057;-88
2022/05/04 18:27:26;;;;;;;4.67;1.90;;;10.60;93.10;;;;;;6106378;23;20428;-88
2022/05/04 18:29:52;;;;;;;4.30;1.30;;;10.60;93.40;;;;;;6106324;23;20021;-90
2022/05/04 18:32:18;;;;;;;3.22;1.50;;;10.60;93.90;;;;;;6130810;23;20017;-89
2022/05/04 18:34:43;;;;;;;4.40;1.30;;;10.60;93.80;;;;;;6130642;23;20017;-89
2022/05/04 18:37:09;;;;;;;3.73;1.60;;;10.50;93.60;;;;;;6105981;23;20013;-89
2022/05/04 18:39:35;;;;;;;4.57;1.73;;;10.30;93.80;;;;;;6130557;23;20080;-88
2022/05/04 18:42:00;;;;;;;4.03;1.80;;;10.30;94.80;;;;;;6130693;23;20018;-89
2022/05/04 18:44:26;;;;;;;3.50;1.53;;;10.30;95.80;;;;;;6106064;23;20045;-89
2022/05/04 18:46:53;;;;;;;5.67;1.83;;;10.20;96.50;;;;;;6130237;23;20061;-90
2022/05/04 18:49:20;;;;;;;;;;;10.20;96.90;;;;;;6130794;23;20099;-90
2022/05/04 18:51:46;;;;;;;4.30;1.80;;;10.10;99.20;;;;;;6130275;23;19923;-89
2022/05/04 18:54:11;;;;;;;5.28;1.90;;;10.10;98.30;;;;;;6105946;23;20021;-90
2022/05/04 18:56:38;;;;;;;5.30;2.20;;;10.00;98.30;;;;;;6130109;23;20085;-90
2022/05/04 18:59:07;;;;;;;5.13;1.77;;;10.00;98.50;;;;;;6130477;23;20017;-91
2022/05/04 19:01:34;;;;;;;4.32;1.67;;;10.00;98.60;;;;;;6106477;23;20028;-89
2022/05/04 19:03:59;;;;;;;3.15;1.30;;;10.00;98.40;;;;;;6106623;23;20466;-90
2022/05/04 19:06:25;;;;;;;3.87;1.33;;;10.00;98.60;;;;;;6106707;23;20021;-91
2022/05/04 19:08:54;;;;;;;6.70;1.63;;;9.90;98.80;;;;;;6105989;23;20028;-90
2022/05/04 19:11:20;;;;;;;6.32;1.65;;;9.90;99.10;;;;;;6132311;23;20451;-88
2022/05/04 19:13:45;;;;;;;4.45;1.40;;;9.90;99.20;;;;;;6107566;23;20093;-91
2022/05/04 19:16:11;;;;;;;7.17;1.90;;;10.00;99.20;;;;;;6105542;23;20014;-90
2022/05/04 19:18:37;;;;;;;3.25;1.60;;;9.90;99.40;;;;;;6105222;23;20256;-91
2022/05/04 19:21:03;;;;;;;4.60;2.28;;;9.80;99.30;;;;;;6105877;23;20088;-90
2022/05/04 19:23:29;;;;;;;6.68;2.03;;;9.80;99.80;;;;;;6105687;23;20021;-90
2022/05/04 19:25:59;;;;;;;4.33;1.97;;;9.80;99.90;;;;;;6105723;23;20013;-93
2022/05/04 19:28:27;;;;;;;4.38;1.83;;;9.80;99.90;;;;;;6130513;23;20018;-91
2022/05/04 19:30:53;;;;;;;6.18;1.70;;;9.80;99.90;;;;;;6105712;23;20034;-90
2022/05/04 19:33:18;;;;;;;5.63;2.10;;;9.80;99.90;;;;;;6130254;23;20104;-93
2022/05/04 19:35:45;;;;;;;5.97;2.20;;;9.70;99.90;;;;;;6105965;23;20089;-90
2022/05/04 19:38:10;;;;;;;4.78;1.75;;;9.70;99.90;;;;;;6105940;23;20021;-89
2022/05/04 19:40:36;;;;;;;5.43;2.43;;;9.70;99.90;;;;;;6106159;23;20020;-91
2022/05/04 19:43:02;;;;;;;5.00;2.03;;;9.60;99.90;;;;;;6130045;23;20053;-90
2022/05/04 19:45:28;;;;;;;4.80;2.07;;;9.60;99.90;;;;;;6129501;23;20009;-90
2022/05/04 19:47:54;;;;;;;7.05;2.13;;;9.60;99.90;;;;;;6105598;23;20017;-90
2022/05/04 19:50:20;;;;;;;6.15;2.10;;;9.60;99.90;;;;;;6130280;23;20109;-91
2022/05/04 19:52:46;;;;;;;6.33;2.50;;;9.60;99.90;;;;;;6105823;23;20060;-90
2022/05/04 19:55:12;;;;;;;4.90;2.38;;;9.60;99.90;;;;;;6105610;23;20727;-91
2022/05/04 19:57:38;;;;;;;5.63;2.13;;;9.60;99.90;;;;;;6106125;23;20470;-92
2022/05/04 20:00:07;;;;;;;7.45;2.45;;;9.50;99.90;;;;;;6106041;23;20076;-91
2022/05/04 20:02:34;;;;;;;3.70;1.83;;;9.40;99.90;;;;;;6129628;23;20025;-90
2022/05/04 20:04:59;;;;;;;;;;;9.40;99.90;;;;;;6106265;23;20013;-90
2022/05/04 20:07:26;;;;;;;3.25;1.75;;;9.30;99.90;;;;;;6129602;23;19917;-89
2022/05/04 20:09:51;;;;;;;4.68;1.95;;;9.20;99.90;;;;;;6105382;23;20092;-89
2022/05/04 20:12:18;;;;;;;5.00;2.20;;;9.10;99.90;;;;;;6130258;23;20052;-91
2022/05/04 20:14:44;;;;;;;3.90;1.83;;;9.00;99.90;;;;;;6130341;23;20017;-89
2022/05/04 20:17:10;;;;;;;5.85;2.42;;;8.90;99.90;;;;;;6130168;23;20085;-90
2022/05/04 20:19:36;;;;;;;6.75;3.10;;;8.80;99.90;;;;;;6105872;23;20018;-91
2022/05/04 20:22:05;;;;;;;5.40;2.33;;;8.80;99.90;;;;;;6105587;23;20017;-93
2022/05/04 20:24:38;;;;;;;5.20;2.35;;;8.80;99.90;;;;;;6105209;23;20014;-92
2022/05/04 20:27:04;;;;;;;6.63;2.72;;;8.80;99.90;;;;;;6105105;23;20052;-89
2022/05/04 20:29:30;;;;;;;4.37;2.30;;;8.80;99.90;;;;;;6106290;23;20018;-90
2022/05/04 20:31:56;;;;;;;5.87;2.40;;;8.90;99.90;;;;;;6105430;23;20018;-91
2022/05/04 20:34:21;;;;;;;6.67;2.50;;;8.90;99.90;;;;;;6106143;23;20466;-90
2022/05/04 20:36:47;;;;;;;5.93;2.37;;;8.90;99.90;;;;;;6107776;23;20021;-91
2022/05/04 20:39:13;;;;;;;5.90;2.50;;;9.00;99.90;;;;;;6131655;23;20017;-90
2022/05/04 20:41:43;;;;;;;4.57;2.10;;;9.00;99.90;;;;;;6107470;23;20096;-90
2022/05/04 20:46:57;;;;;;;6.80;2.40;;;9.00;99.90;;;;;;6187681;23;20021;-91
2022/05/04 20:49:28;;;;;;;4.93;2.13;;;8.90;99.90;;;;;;6137068;23;20052;-90
2022/05/04 21:20:23;;;;;;;7.65;2.67;;;8.10;99.90;;;;;;6155593;23;20029;-92
2022/05/04 21:22:49;;;;;;;6.40;2.60;;;8.10;99.90;;;;;;6105484;23;20395;-89
2022/05/04 21:25:25;;;;;;;5.40;2.43;;;8.10;99.90;;;;;;6131945;23;20083;-91
2022/05/04 21:30:56;;;;;;;5.75;2.50;;;8.10;99.90;;;;;;6201431;23;20036;-89
2022/05/04 21:33:23;;;;;;;5.07;2.40;;;8.10;99.90;;;;;;6166616;23;20443;-90
2022/05/04 21:35:48;;;;;;;5.07;2.28;;;8.00;99.90;;;;;;6166177;23;20027;-88
2022/05/04 21:38:15;;;;;;;6.87;2.13;;;7.90;99.90;;;;;;6165763;23;20013;-89
2022/05/04 21:40:41;;;;;;;;;;;7.90;99.90;;;;;;6165664;23;20017;-88
2022/05/04 21:43:07;;;;;;;4.45;1.92;;;7.80;99.90;;;;;;6165325;23;19919;-90
2022/05/04 21:45:33;;;;;;;6.50;2.13;;;7.70;99.90;;;;;;6166598;23;20013;-89
2022/05/04 21:47:58;;;;;;;6.67;2.63;;;7.70;99.90;;;;;;6166403;23;20444;-87
2022/05/04 21:50:25;;;;;;;7.63;2.80;;;7.60;99.90;;;;;;6191115;23;20030;-93
2022/05/04 21:52:50;;;;;;;5.47;2.55;;;7.50;99.90;;;;;;6191886;23;20023;-90
2022/05/04 21:55:16;;;;;;;6.67;2.90;;;7.50;99.90;;;;;;6167539;23;20024;-90
2022/05/04 21:57:42;;;;;;;6.35;2.97;;;7.50;99.90;;;;;;6191780;23;20096;-90
2022/05/04 22:00:30;;;;;;;4.60;2.40;;;7.50;99.90;;;;;;6192588;23;20017;-89
2022/05/04 22:02:56;;;;;;;5.20;2.33;;;7.50;99.90;;;;;;6167323;23;20243;-89
2022/05/04 22:05:21;;;;;;;5.77;2.37;;;7.50;99.90;;;;;;6166609;23;20131;-92
2022/05/04 22:07:48;;;;;;;4.47;2.20;;;7.50;99.90;;;;;;6166701;23;20063;-90
2022/05/04 22:10:14;;;;;;;5.95;2.67;;;7.40;99.90;;;;;;6166120;23;20013;-92
2022/05/04 22:15:24;;;;;;;6.82;2.97;;;7.30;99.90;;;;;;6191704;23;20093;-90
2022/05/04 22:17:51;;;;;;;7.00;2.63;;;7.30;99.90;;;;;;6166561;23;20013;-89
2022/05/04 22:20:16;;;;;;;;;;;7.30;99.90;;;;;;6191200;23;20016;-91
2022/05/04 22:22:42;;;;;;;5.60;2.85;;;7.30;99.90;;;;;;6190638;23;20246;-93
2022/05/04 22:25:09;;;;;;;6.13;2.77;;;7.20;99.90;;;;;;6165637;23;20020;-93
2022/05/04 22:27:35;;;;;;;7.03;2.80;;;7.30;99.90;;;;;;6165784;23;20023;-91
2022/05/04 22:30:00;;;;;;;7.13;3.10;;;7.30;99.90;;;;;;6165947;23;20056;-89
2022/05/04 22:32:26;;;;;;;8.77;3.50;;;7.30;99.90;;;;;;6215346;23;20048;-90
2022/05/04 22:34:52;;;;;;;5.70;2.77;;;7.30;99.90;;;;;;6166648;23;20025;-93
2022/05/04 22:37:18;;;;;;;6.95;2.80;;;7.30;99.90;;;;;;6166201;23;20021;-92
2022/05/04 22:39:44;;;;;;;6.80;3.10;;;7.40;99.90;;;;;;6166502;23;20017;-92
2022/05/04 22:42:10;;;;;;;7.30;3.10;;;7.30;99.90;;;;;;6191386;23;20533;-89
2022/05/04 22:44:37;;;;;;;5.97;2.83;;;7.40;99.90;;;;;;6191642;23;20044;-90
2022/05/04 22:47:03;;;;;;;5.70;2.83;;;7.40;99.90;;;;;;6166405;23;20017;-93
2022/05/04 22:49:29;;;;;;;5.93;2.60;;;7.40;99.90;;;;;;6165901;23;20099;-92
2022/05/04 22:51:54;;;;;;;8.93;2.97;;;7.40;99.90;;;;;;6164672;23;20020;-88
2022/05/04 22:54:20;;;;;;;7.17;3.03;;;7.40;99.90;;;;;;6190118;23;20016;-90